createdAt,value
2023-04-25T00:00:18.067Z,10.69
2023-04-25T00:10:56.334Z,10.61
2023-04-25T00:21:19.323Z,10.48
2023-04-25T00:31:40.648Z,10.42
2023-04-25T00:42:03.203Z,10.37
2023-04-25T00:52:24.751Z,10.29
2023-04-25T01:02:46.721Z,10.22
2023-04-25T01:13:08.323Z,10.13
2023-04-25T01:23:30.380Z,10.07
2023-04-25T01:33:52.169Z,10.01
2023-04-25T01:44:13.726Z,9.95
2023-04-25T01:54:35.184Z,9.92
2023-04-25T02:04:57.413Z,9.93
2023-04-25T02:15:21.199Z,9.89
2023-04-25T02:25:50.175Z,9.86
2023-04-25T02:36:11.610Z,9.85
2023-04-25T02:56:59.153Z,9.73
2023-04-25T03:07:26.111Z,9.63
2023-04-25T03:17:47.196Z,9.51
2023-04-25T03:28:08.674Z,9.48
2023-04-25T03:38:30.276Z,9.42
2023-04-25T03:48:52.439Z,9.35
2023-04-25T03:59:18.536Z,9.32
2023-04-25T04:09:40.872Z,9.29
2023-04-25T04:20:08.640Z,9.21
2023-04-25T04:30:56.720Z,9.16
2023-04-25T04:41:18.278Z,9.16
2023-04-25T04:51:59.733Z,9.17
2023-04-25T05:02:31.917Z,9.16
2023-04-25T05:13:06.900Z,9.21
2023-04-25T05:24:00.905Z,9.27
2023-04-25T05:34:48.662Z,9.38
2023-04-25T05:45:18.823Z,9.48
2023-04-25T05:55:47.966Z,9.53
2023-04-25T06:06:21.125Z,9.56
2023-04-25T06:16:42.451Z,9.63
2023-04-25T06:27:03.921Z,9.67
2023-04-25T06:37:25.255Z,9.70
2023-04-25T06:47:47.364Z,9.75
2023-04-25T06:58:08.493Z,9.77
2023-04-25T07:08:48.186Z,9.88
2023-04-25T07:19:09.792Z,9.85
2023-04-25T07:29:31.627Z,9.91
2023-04-25T07:39:54.789Z,9.93
2023-04-25T07:50:16.114Z,10.01
2023-04-25T08:00:38.241Z,10.02
2023-04-25T08:11:26.555Z,10.06
2023-04-25T08:21:49.189Z,10.21
2023-04-25T08:32:16.223Z,10.44
2023-04-25T08:42:50.425Z,10.57
2023-04-25T08:53:19.840Z,10.71
2023-04-25T09:03:42.367Z,10.84
2023-04-25T09:14:16.346Z,10.91
2023-04-25T09:24:53.749Z,11.04
2023-04-25T09:35:27.445Z,11.15
2023-04-25T09:45:53.055Z,11.15
2023-04-25T09:56:14.959Z,11.00
2023-04-25T10:06:37.648Z,11.04
2023-04-25T10:17:00.124Z,11.19
2023-04-25T10:27:21.365Z,11.03
2023-04-25T10:38:02.406Z,10.67
2023-04-25T10:48:27.866Z,10.27
2023-04-25T10:58:51.378Z,10.03
2023-04-25T11:09:14.735Z,10.07
2023-04-25T11:19:36.217Z,10.30
2023-04-25T11:29:57.194Z,10.49
2023-04-25T11:40:21.201Z,10.83
2023-04-25T11:50:42.350Z,11.18
2023-04-25T12:01:04.282Z,11.26
2023-04-25T12:11:27.125Z,11.29
2023-04-25T12:21:57.978Z,11.37
2023-04-25T12:32:20.064Z,11.40
2023-04-25T12:42:41.594Z,11.40
2023-04-25T12:53:02.865Z,11.41
2023-04-25T13:03:24.459Z,11.44
2023-04-25T13:13:45.919Z,11.67
2023-04-25T13:24:07.576Z,11.70
2023-04-25T13:34:30.266Z,11.61
2023-04-25T13:44:53.535Z,11.76
2023-04-25T13:55:14.494Z,12.03
2023-04-25T14:05:40.333Z,11.88
2023-04-25T14:16:01.891Z,11.56
2023-04-25T14:26:23.191Z,11.57
2023-04-25T14:36:44.522Z,11.67
2023-04-25T14:47:06.328Z,11.68
2023-04-25T14:57:27.759Z,11.68
2023-04-25T15:07:49.133Z,11.67
2023-04-25T15:18:10.729Z,11.66
2023-04-25T15:28:32.806Z,11.60
2023-04-25T15:38:53.918Z,11.57
2023-04-25T15:49:14.966Z,11.55
2023-04-25T15:59:36.651Z,11.50
2023-04-25T16:09:57.801Z,11.49
2023-04-25T16:20:19.610Z,11.42
2023-04-25T16:30:41.994Z,11.38
2023-04-25T16:41:03.513Z,11.36
2023-04-25T16:51:24.535Z,11.38
2023-04-25T17:01:45.896Z,11.41
2023-04-25T17:12:07.493Z,11.41
2023-04-25T17:22:28.754Z,11.39
2023-04-25T17:32:50.277Z,11.34
2023-04-25T17:43:11.431Z,11.30
2023-04-25T17:53:33.082Z,11.29
2023-04-25T18:03:55.437Z,11.17
2023-04-25T18:14:17.264Z,11.17
2023-04-25T18:24:38.784Z,11.05
2023-04-25T18:35:00.672Z,10.97
2023-04-25T18:45:21.784Z,10.86
2023-04-25T18:55:44.680Z,10.67
2023-04-25T19:06:07.314Z,10.67
2023-04-25T19:16:28.983Z,10.65
2023-04-25T19:26:50.120Z,10.61
2023-04-25T19:37:11.402Z,10.62
2023-04-25T19:47:33.260Z,10.55
2023-04-25T19:57:54.381Z,10.47
2023-04-25T20:08:16.003Z,10.40
2023-04-25T20:18:37.613Z,10.38
2023-04-25T20:28:59.044Z,10.31
2023-04-25T20:39:22.078Z,10.21
2023-04-25T20:49:43.347Z,10.12
2023-04-25T21:00:14.241Z,10.03
2023-04-25T21:10:37.287Z,9.93
2023-04-25T21:20:59.295Z,9.88
2023-04-25T21:31:20.751Z,9.82
2023-04-25T21:41:43.829Z,9.77
2023-04-25T21:52:05.057Z,9.71
2023-04-25T22:02:27.613Z,9.65
2023-04-25T22:12:52.461Z,9.59
2023-04-25T22:23:14.066Z,9.56
2023-04-25T22:33:36.052Z,9.49
2023-04-25T22:43:57.744Z,9.42
2023-04-25T22:54:19.308Z,9.40
2023-04-25T23:04:40.633Z,9.40
2023-04-25T23:15:03.215Z,9.40
2023-04-25T23:25:24.947Z,9.39
2023-04-25T23:35:46.324Z,9.36
2023-04-25T23:46:07.476Z,9.31
2023-04-25T23:56:28.752Z,9.20
